createdAt,value
2022-08-02T00:00:14.163Z,99008.56
2022-08-02T00:02:43.326Z,99009.94
2022-08-02T00:05:12.239Z,99018.56
2022-08-02T00:07:41.298Z,99011.66
2022-08-02T00:10:12.756Z,99002.59
2022-08-02T00:12:40.676Z,98999.34
2022-08-02T00:15:16.229Z,98990.72
2022-08-02T00:17:45.554Z,98992.13
2022-08-02T00:20:14.771Z,98995.91
2022-08-02T00:22:42.596Z,99008.06
2022-08-02T00:25:10.958Z,99003.94
2022-08-02T00:27:40.447Z,99002.44
2022-08-02T00:30:11.559Z,99004.75
2022-08-02T00:32:43.194Z,99018.47
2022-08-02T00:35:11.079Z,99024.25
2022-08-02T00:37:42.278Z,99022.31
2022-08-02T00:40:11.767Z,99029.00
2022-08-02T00:42:40.953Z,99025.19
2022-08-02T00:45:12.082Z,99023.91
2022-08-02T00:47:39.423Z,99024.91
2022-08-02T00:50:07.422Z,99016.84
2022-08-02T00:52:34.733Z,99014.25
2022-08-02T00:55:02.130Z,99005.81
2022-08-02T00:57:29.427Z,99016.09
2022-08-02T00:59:56.833Z,99017.72
2022-08-02T01:02:24.335Z,99008.75
2022-08-02T01:04:51.615Z,99007.41
2022-08-02T01:07:19.052Z,99005.06
2022-08-02T01:09:46.753Z,99002.63
2022-08-02T01:12:14.840Z,98999.84
2022-08-02T01:14:51.837Z,99008.66
2022-08-02T01:18:10.042Z,99003.75
2022-08-02T01:21:14.906Z,98997.59
2022-08-02T01:24:19.673Z,98997.38
2022-08-02T01:27:03.538Z,99010.66
2022-08-02T01:29:36.142Z,99005.75
2022-08-02T01:32:24.570Z,99016.41
2022-08-02T01:35:14.138Z,99026.53
2022-08-02T01:38:15.088Z,99022.63
2022-08-02T01:40:47.032Z,99030.41
2022-08-02T01:43:17.774Z,99035.09
2022-08-02T01:45:48.500Z,99028.16
2022-08-02T01:48:19.052Z,99026.22
2022-08-02T01:50:49.088Z,99021.22
2022-08-02T01:53:21.938Z,99019.84
2022-08-02T01:55:57.408Z,99020.16
2022-08-02T01:58:32.773Z,99022.44
2022-08-02T02:01:02.116Z,99019.47
2022-08-02T02:03:33.698Z,99023.34
2022-08-02T02:06:05.578Z,99030.66
2022-08-02T02:08:43.864Z,99042.22
2022-08-02T02:12:09.316Z,99032.44
2022-08-02T02:14:04.108Z,99037.66
2022-08-02T02:16:34.654Z,99038.78
2022-08-02T02:19:04.382Z,99039.34
2022-08-02T02:21:32.113Z,99039.34
2022-08-02T02:24:03.823Z,99036.47
2022-08-02T02:26:44.288Z,99037.09
2022-08-02T02:29:22.507Z,99039.50
2022-08-02T02:31:55.534Z,99036.47
2022-08-02T02:35:23.302Z,99029.88
2022-08-02T02:37:55.220Z,99027.72
2022-08-02T02:40:26.698Z,99027.50
2022-08-02T02:43:01.711Z,99021.38
2022-08-02T02:45:32.315Z,99036.88
2022-08-02T02:49:13.968Z,99032.28
2022-08-02T02:51:42.456Z,99027.41
2022-08-02T02:55:24.932Z,99022.88
2022-08-02T02:59:07.465Z,99023.22
2022-08-02T03:02:49.815Z,99028.81
2022-08-02T03:06:32.196Z,99027.09
2022-08-02T03:09:00.604Z,99021.34
2022-08-02T03:12:43.584Z,99019.75
2022-08-02T03:16:26.010Z,99022.66
2022-08-02T03:20:09.054Z,99010.78
2022-08-02T03:23:51.840Z,99011.41
2022-08-02T03:26:22.170Z,99012.63
2022-08-02T03:28:54.818Z,99022.72
2022-08-02T03:31:47.944Z,99018.78
2022-08-02T03:34:22.363Z,99017.00
2022-08-02T03:36:56.327Z,99024.03
2022-08-02T03:39:26.720Z,99024.97
2022-08-02T03:41:58.254Z,99032.94
2022-08-02T03:44:26.842Z,99033.81
2022-08-02T03:46:55.217Z,99037.53
2022-08-02T03:49:22.590Z,99032.88
2022-08-02T03:51:50.640Z,99037.28
2022-08-02T03:54:19.012Z,99030.38
2022-08-02T03:56:47.782Z,99025.72
2022-08-02T03:59:17.495Z,99026.34
2022-08-02T04:01:44.792Z,99035.34
2022-08-02T04:04:12.110Z,99040.63
2022-08-02T04:06:40.005Z,99039.28
2022-08-02T04:09:09.845Z,99047.34
2022-08-02T04:11:39.736Z,99048.69
2022-08-02T04:14:11.284Z,99043.19
2022-08-02T04:16:48.680Z,99049.47
2022-08-02T04:19:27.111Z,99055.63
2022-08-02T04:21:58.344Z,99062.44
2022-08-02T04:24:44.885Z,99067.38
2022-08-02T04:27:48.786Z,99062.09
2022-08-02T04:30:07.187Z,99071.31
2022-08-02T04:32:39.825Z,99069.78
2022-08-02T04:35:24.752Z,99078.38
2022-08-02T04:38:08.838Z,99068.50
2022-08-02T04:40:38.769Z,99078.91
2022-08-02T04:43:06.987Z,99077.69
2022-08-02T04:45:36.135Z,99082.88
2022-08-02T04:48:05.925Z,99090.75
2022-08-02T04:50:35.280Z,99087.78
2022-08-02T04:53:02.944Z,99090.34
2022-08-02T04:55:30.394Z,99081.56
2022-08-02T04:57:59.037Z,99081.00
2022-08-02T05:00:29.126Z,99081.81
2022-08-02T05:03:01.098Z,99077.34
2022-08-02T05:05:28.650Z,99078.16
2022-08-02T05:07:56.241Z,99075.63
2022-08-02T05:10:24.464Z,99083.22
2022-08-02T05:12:52.192Z,99080.59
2022-08-02T05:15:19.721Z,99077.72
2022-08-02T05:17:48.972Z,99081.41
2022-08-02T05:20:38.146Z,99084.66
2022-08-02T05:23:05.419Z,99086.13
2022-08-02T05:25:34.839Z,99085.84
2022-08-02T05:28:02.151Z,99083.53
2022-08-02T05:30:29.520Z,99085.84
2022-08-02T05:32:56.863Z,99086.41
2022-08-02T05:35:29.819Z,99086.31
2022-08-02T05:37:57.117Z,99084.31
2022-08-02T05:40:26.012Z,99077.16
2022-08-02T05:42:55.062Z,99082.75
2022-08-02T05:45:23.245Z,99083.00
2022-08-02T05:47:51.446Z,99077.16
2022-08-02T05:50:20.162Z,99078.22
2022-08-02T05:52:59.678Z,99089.25
2022-08-02T05:55:34.670Z,99084.91
2022-08-02T05:58:30.252Z,99098.94
2022-08-02T06:01:05.513Z,99087.28
2022-08-02T06:03:57.399Z,99094.13
2022-08-02T06:06:27.206Z,99096.28
2022-08-02T06:09:10.967Z,99099.69
2022-08-02T06:12:01.698Z,99099.63
2022-08-02T06:14:34.574Z,99105.25
2022-08-02T06:17:09.463Z,99097.50
2022-08-02T06:19:51.884Z,99105.72
2022-08-02T06:22:37.202Z,99105.91
2022-08-02T06:32:16.577Z,99103.59
2022-08-02T06:34:44.034Z,99106.09
2022-08-02T06:37:42.733Z,99104.19
2022-08-02T06:40:40.809Z,99104.34
2022-08-02T06:43:55.889Z,99109.97
2022-08-02T06:46:57.215Z,99111.81
2022-08-02T06:49:10.936Z,99101.75
2022-08-02T06:51:38.337Z,99100.97
2022-08-02T06:54:08.445Z,99100.63
2022-08-02T06:56:35.735Z,99110.38
2022-08-02T06:59:05.912Z,99098.28
2022-08-02T07:01:39.190Z,99105.53
2022-08-02T07:04:12.279Z,99105.47
2022-08-02T07:06:39.818Z,99102.84
2022-08-02T07:09:22.789Z,99110.19
2022-08-02T07:11:50.391Z,99108.81
2022-08-02T07:14:20.848Z,99118.94
2022-08-02T07:16:48.540Z,99116.81
2022-08-02T07:19:16.217Z,99102.31
2022-08-02T07:21:59.564Z,99103.28
2022-08-02T07:24:30.853Z,99104.75
2022-08-02T07:27:11.293Z,99100.00
2022-08-02T07:29:46.818Z,99099.72
2022-08-02T07:32:24.058Z,99099.72
2022-08-02T07:34:55.387Z,99101.13
2022-08-02T07:37:52.929Z,99109.56
2022-08-02T07:40:20.631Z,99113.03
2022-08-02T07:42:57.730Z,99111.91
2022-08-02T07:45:27.321Z,99110.16
2022-08-02T07:47:56.832Z,99112.84
2022-08-02T07:50:28.427Z,99112.88
2022-08-02T07:52:57.992Z,99115.09
2022-08-02T07:55:35.163Z,99113.56
2022-08-02T07:58:11.075Z,99105.81
2022-08-02T08:00:43.930Z,99105.59
2022-08-02T08:03:12.160Z,99105.88
2022-08-02T08:05:40.671Z,99105.63
2022-08-02T08:08:17.305Z,99107.94
2022-08-02T08:10:46.396Z,99105.19
2022-08-02T08:13:17.620Z,99113.03
2022-08-02T08:15:51.869Z,99115.00
2022-08-02T08:18:22.139Z,99114.78
2022-08-02T08:20:50.144Z,99108.28
2022-08-02T08:23:17.571Z,99103.88
2022-08-02T08:25:45.992Z,99088.88
2022-08-02T08:28:13.590Z,99097.22
2022-08-02T08:30:45.396Z,99100.75
2022-08-02T08:33:13.148Z,99100.28
2022-08-02T08:35:40.901Z,99104.56
2022-08-02T08:38:08.592Z,99114.66
2022-08-02T08:40:37.063Z,99104.16
2022-08-02T08:43:06.958Z,99106.72
2022-08-02T08:45:34.560Z,99108.75
2022-08-02T08:48:25.676Z,99100.72
2022-08-02T08:51:15.788Z,99092.00
2022-08-02T08:53:52.278Z,99106.25
2022-08-02T08:56:20.662Z,99099.69
2022-08-02T08:58:48.450Z,99093.88
2022-08-02T09:01:17.270Z,99085.09
2022-08-02T09:03:45.614Z,99078.78
2022-08-02T09:06:12.949Z,99080.75
2022-08-02T09:08:40.230Z,99079.22
2022-08-02T09:11:25.718Z,99072.75
2022-08-02T09:14:34.663Z,99076.47
2022-08-02T09:17:12.720Z,99061.16
2022-08-02T09:19:45.808Z,99070.69
2022-08-02T09:22:15.774Z,99080.13
2022-08-02T09:24:49.934Z,99076.94
2022-08-02T09:27:23.113Z,99077.84
2022-08-02T09:30:13.784Z,99079.69
2022-08-02T09:32:47.841Z,99069.09
2022-08-02T09:36:06.202Z,99068.47
2022-08-02T09:38:26.014Z,99062.78
2022-08-02T09:40:53.902Z,99063.44
2022-08-02T09:43:21.303Z,99054.59
2022-08-02T09:45:48.673Z,99056.81
2022-08-02T09:48:15.917Z,99055.72
2022-08-02T09:50:46.377Z,99055.34
2022-08-02T09:53:14.479Z,99050.44
2022-08-02T09:55:42.905Z,99044.75
2022-08-02T09:58:40.236Z,99048.72
2022-08-02T10:01:11.257Z,99062.97
2022-08-02T10:04:21.292Z,99052.56
2022-08-02T10:06:54.478Z,99057.25
2022-08-02T10:09:23.426Z,99053.94
2022-08-02T10:11:52.759Z,99059.47
2022-08-02T10:14:21.574Z,99054.66
2022-08-02T10:16:48.898Z,99054.81
2022-08-02T10:19:16.898Z,99042.41
2022-08-02T10:21:58.865Z,99043.63
2022-08-02T10:24:31.871Z,99047.09
2022-08-02T10:27:01.760Z,99042.41
2022-08-02T10:29:44.755Z,99033.81
2022-08-02T10:32:38.474Z,99027.66
2022-08-02T10:35:20.178Z,99022.09
2022-08-02T10:38:01.795Z,99012.38
2022-08-02T10:40:54.671Z,99013.19
2022-08-02T10:43:37.275Z,99012.38
2022-08-02T10:46:37.589Z,99007.78
2022-08-02T10:52:02.700Z,99011.19
2022-08-02T10:55:01.543Z,99003.72
2022-08-02T10:57:40.665Z,99004.81
2022-08-02T11:00:27.377Z,99001.75
2022-08-02T11:02:55.000Z,99007.47
2022-08-02T11:05:43.283Z,99006.19
2022-08-02T11:08:24.644Z,98997.19
2022-08-02T11:10:52.151Z,98997.06
2022-08-02T11:13:20.394Z,98991.13
2022-08-02T11:15:57.183Z,98977.25
2022-08-02T11:18:50.681Z,98972.69
2022-08-02T11:21:37.782Z,98973.94
2022-08-02T11:24:39.125Z,98969.13
2022-08-02T11:27:21.729Z,98975.97
2022-08-02T11:29:50.073Z,98970.22
2022-08-02T11:32:30.726Z,98967.56
2022-08-02T11:35:10.969Z,98965.84
2022-08-02T11:37:45.248Z,98967.56
2022-08-02T11:40:19.779Z,98963.13
2022-08-02T11:42:50.673Z,98955.31
2022-08-02T11:45:29.653Z,98962.72
2022-08-02T11:47:57.298Z,98957.88
2022-08-02T11:50:29.991Z,98955.59
2022-08-02T11:53:01.406Z,98957.97
2022-08-02T11:55:32.530Z,98949.94
2022-08-02T11:58:05.407Z,98954.53
2022-08-02T12:00:34.216Z,98940.47
2022-08-02T12:03:02.049Z,98946.09
2022-08-02T12:06:02.902Z,98943.91
2022-08-02T12:08:22.043Z,98941.44
2022-08-02T12:10:51.430Z,98944.44
2022-08-02T12:13:18.838Z,98941.13
2022-08-02T12:15:47.610Z,98946.94
2022-08-02T12:18:38.926Z,98937.25
2022-08-02T12:21:27.790Z,98937.63
2022-08-02T12:23:58.803Z,98937.88
2022-08-02T12:26:31.439Z,98936.44
2022-08-02T12:29:04.052Z,98938.63
2022-08-02T12:31:55.931Z,98940.94
2022-08-02T12:34:30.029Z,98935.81
2022-08-02T12:37:09.151Z,98933.91
2022-08-02T12:39:46.735Z,98927.38
2022-08-02T12:42:16.294Z,98931.91
2022-08-02T12:44:59.706Z,98910.00
2022-08-02T12:47:35.518Z,98923.09
2022-08-02T12:50:26.903Z,98917.53
2022-08-02T12:53:17.913Z,98912.34
2022-08-02T12:56:01.579Z,98906.44
2022-08-02T12:58:51.367Z,98900.41
2022-08-02T13:01:28.291Z,98899.72
2022-08-02T13:04:09.945Z,98889.72
2022-08-02T13:06:44.478Z,98893.72
2022-08-02T13:09:17.124Z,98895.78
2022-08-02T13:11:45.716Z,98899.38
2022-08-02T13:14:15.164Z,98894.69
2022-08-02T13:16:45.624Z,98894.94
2022-08-02T13:19:15.639Z,98885.47
2022-08-02T13:22:01.234Z,98879.63
2022-08-02T13:24:40.738Z,98879.47
2022-08-02T13:27:20.909Z,98886.38
2022-08-02T13:29:51.085Z,98888.00
2022-08-02T13:32:21.722Z,98880.13
2022-08-02T13:34:50.808Z,98886.88
2022-08-02T13:37:18.686Z,98882.38
2022-08-02T13:40:05.484Z,98885.41
2022-08-02T13:42:34.186Z,98867.75
2022-08-02T13:45:12.781Z,98861.03
2022-08-02T13:48:03.506Z,98861.66
2022-08-02T13:50:32.456Z,98864.94
2022-08-02T13:52:59.786Z,98860.19
2022-08-02T13:55:27.958Z,98848.94
2022-08-02T13:57:55.309Z,98847.84
2022-08-02T14:00:34.327Z,98843.53
2022-08-02T14:03:06.891Z,98837.16
2022-08-02T14:05:47.406Z,98838.47
2022-08-02T14:08:22.953Z,98835.09
2022-08-02T14:10:51.855Z,98839.75
2022-08-02T14:13:20.062Z,98845.31
2022-08-02T14:15:48.428Z,98835.50
2022-08-02T14:18:16.330Z,98832.38
2022-08-02T14:20:45.741Z,98839.72
2022-08-02T14:23:13.102Z,98831.59
2022-08-02T14:25:41.179Z,98829.25
2022-08-02T14:28:08.757Z,98833.44
2022-08-02T14:30:36.274Z,98831.31
2022-08-02T14:33:04.242Z,98839.72
2022-08-02T14:35:32.452Z,98833.38
2022-08-02T14:38:01.340Z,98828.72
2022-08-02T14:40:31.151Z,98833.50
2022-08-02T14:43:08.286Z,98832.03
2022-08-02T14:45:40.554Z,98837.78
2022-08-02T14:48:12.447Z,98827.78
2022-08-02T14:50:42.066Z,98825.69
2022-08-02T14:53:12.227Z,98826.47
2022-08-02T14:55:43.877Z,98828.25
2022-08-02T14:58:12.347Z,98812.34
2022-08-02T15:00:41.610Z,98817.56
2022-08-02T15:03:11.423Z,98819.38
2022-08-02T15:05:40.438Z,98821.63
2022-08-02T15:08:08.211Z,98809.88
2022-08-02T15:10:35.767Z,98813.63
2022-08-02T15:13:03.055Z,98814.72
2022-08-02T15:15:30.416Z,98811.78
2022-08-02T15:17:57.770Z,98806.13
2022-08-02T15:20:34.050Z,98806.19
2022-08-02T15:23:03.416Z,98810.09
2022-08-02T15:25:32.505Z,98810.97
2022-08-02T15:27:59.751Z,98805.16
2022-08-02T15:30:27.111Z,98800.34
2022-08-02T15:32:56.024Z,98806.81
2022-08-02T15:35:26.241Z,98806.75
2022-08-02T15:37:54.366Z,98800.94
2022-08-02T15:41:24.856Z,98796.53
2022-08-02T15:44:00.904Z,98789.91
2022-08-02T15:47:50.397Z,98792.81
2022-08-02T15:50:22.187Z,98788.00
2022-08-02T15:52:49.510Z,98793.34
2022-08-02T15:55:20.792Z,98781.00
2022-08-02T15:59:05.629Z,98785.56
2022-08-02T16:02:48.832Z,98788.94
2022-08-02T16:06:31.427Z,98778.63
2022-08-02T16:10:14.058Z,98784.72
2022-08-02T16:13:57.280Z,98787.72
2022-08-02T16:17:53.527Z,98785.63
2022-08-02T16:21:40.626Z,98787.31
2022-08-02T16:25:24.118Z,98784.03
2022-08-02T16:29:06.950Z,98779.72
2022-08-02T16:32:50.667Z,98775.78
2022-08-02T16:36:36.889Z,98781.94
2022-08-02T16:40:22.680Z,98765.88
2022-08-02T16:44:09.112Z,98781.53
2022-08-02T16:46:38.545Z,98772.47
2022-08-02T16:49:06.586Z,98771.16
2022-08-02T16:51:54.158Z,98771.06
2022-08-02T16:55:38.191Z,98772.38
2022-08-02T16:58:11.113Z,98762.47
2022-08-02T17:00:46.364Z,98761.66
2022-08-02T17:03:19.343Z,98765.78
2022-08-02T17:05:56.375Z,98763.19
2022-08-02T17:08:32.070Z,98765.72
2022-08-02T17:11:03.659Z,98763.72
2022-08-02T17:16:26.371Z,98766.50
2022-08-02T17:18:55.673Z,98768.22
2022-08-02T17:21:23.764Z,98758.84
2022-08-02T17:24:08.191Z,98764.94
2022-08-02T17:26:38.185Z,98761.16
2022-08-02T17:29:16.015Z,98755.06
2022-08-02T17:32:04.854Z,98759.50
2022-08-02T17:34:37.584Z,98762.41
2022-08-02T17:37:06.501Z,98770.38
2022-08-02T17:39:43.820Z,98762.94
2022-08-02T17:42:29.041Z,98771.94
2022-08-02T17:45:06.734Z,98766.03
2022-08-02T17:47:42.388Z,98772.38
2022-08-02T17:50:12.568Z,98774.38
2022-08-02T17:52:51.145Z,98782.78
2022-08-02T17:55:21.289Z,98787.31
2022-08-02T17:57:57.115Z,98777.47
2022-08-02T18:00:37.715Z,98774.31
2022-08-02T18:03:09.988Z,98769.19
2022-08-02T18:05:41.643Z,98777.25
2022-08-02T18:08:24.047Z,98782.06
2022-08-02T18:10:58.135Z,98782.53
2022-08-02T18:13:26.105Z,98785.28
2022-08-02T18:16:00.268Z,98776.44
2022-08-02T18:18:30.919Z,98781.44
2022-08-02T18:21:15.878Z,98781.28
2022-08-02T18:23:58.638Z,98789.94
2022-08-02T18:26:28.527Z,98779.63
2022-08-02T18:29:01.415Z,98778.09
2022-08-02T18:31:29.098Z,98770.72
2022-08-02T18:34:08.157Z,98778.09
2022-08-02T18:36:36.157Z,98776.84
2022-08-02T18:39:16.693Z,98783.16
2022-08-02T18:41:44.517Z,98778.81
2022-08-02T18:44:16.753Z,98782.59
2022-08-02T18:46:49.313Z,98790.53
2022-08-02T18:49:17.339Z,98783.47
2022-08-02T18:51:45.128Z,98785.03
2022-08-02T18:54:12.832Z,98785.34
2022-08-02T18:56:47.301Z,98793.22
2022-08-02T18:59:15.807Z,98791.56
2022-08-02T19:01:50.601Z,98795.28
2022-08-02T19:04:27.434Z,98785.06
2022-08-02T19:07:05.390Z,98787.22
2022-08-02T19:09:36.599Z,98785.94
2022-08-02T19:12:12.112Z,98792.91
2022-08-02T19:14:40.484Z,98785.09
2022-08-02T19:17:53.125Z,98796.56
2022-08-02T19:19:56.115Z,98789.78
2022-08-02T19:22:29.708Z,98801.25
2022-08-02T19:25:01.553Z,98796.47
2022-08-02T19:27:32.787Z,98798.28
2022-08-02T19:30:07.421Z,98807.41
2022-08-02T19:32:59.333Z,98801.66
2022-08-02T19:35:34.448Z,98797.75
2022-08-02T19:38:14.915Z,98808.41
2022-08-02T19:40:42.443Z,98810.75
2022-08-02T19:44:26.076Z,98800.63
2022-08-02T19:46:00.264Z,98810.22
2022-08-02T19:48:28.056Z,98817.97
2022-08-02T19:51:00.987Z,98812.75
2022-08-02T19:53:46.637Z,98819.97
2022-08-02T19:59:13.030Z,98823.66
2022-08-02T20:01:48.661Z,98818.75
2022-08-02T20:04:23.179Z,98830.00
2022-08-02T20:06:51.771Z,98825.81
2022-08-02T20:09:33.131Z,98833.34
2022-08-02T20:12:01.445Z,98830.53
2022-08-02T20:14:33.630Z,98828.50
2022-08-02T20:17:11.884Z,98828.16
2022-08-02T20:19:42.375Z,98834.88
2022-08-02T20:22:14.591Z,98833.63
2022-08-02T20:24:44.198Z,98840.25
2022-08-02T20:27:16.997Z,98832.19
2022-08-02T20:29:51.961Z,98825.13
2022-08-02T20:32:23.395Z,98823.97
2022-08-02T20:34:52.423Z,98827.06
2022-08-02T20:38:00.090Z,98822.44
2022-08-02T20:40:17.137Z,98834.66
2022-08-02T20:42:47.773Z,98832.50
2022-08-02T20:45:19.647Z,98832.72
2022-08-02T20:47:51.032Z,98836.53
2022-08-02T20:50:40.371Z,98840.47
2022-08-02T20:53:24.094Z,98839.66
2022-08-02T20:56:00.242Z,98842.03
2022-08-02T20:58:31.080Z,98855.72
2022-08-02T21:01:01.529Z,98844.91
2022-08-02T21:03:32.268Z,98836.59
2022-08-02T21:06:10.461Z,98840.06
2022-08-02T21:08:42.091Z,98848.16
2022-08-02T21:11:14.578Z,98848.66
2022-08-02T21:13:47.198Z,98844.00
2022-08-02T21:16:30.348Z,98842.59
2022-08-02T21:19:00.200Z,98850.50
2022-08-02T21:21:29.832Z,98841.00
2022-08-02T21:26:48.997Z,98841.50
2022-08-02T21:29:19.000Z,98841.84
2022-08-02T21:31:46.485Z,98838.66
2022-08-02T21:34:22.499Z,98839.66
2022-08-02T21:36:57.459Z,98841.16
2022-08-02T21:39:26.088Z,98839.31
2022-08-02T21:41:53.625Z,98835.16
2022-08-02T21:44:24.780Z,98848.00
2022-08-02T21:46:55.996Z,98845.00
2022-08-02T21:50:08.406Z,98844.03
2022-08-02T21:52:14.588Z,98842.66
2022-08-02T21:54:46.673Z,98843.31
2022-08-02T21:57:16.889Z,98837.44
2022-08-02T21:59:46.547Z,98845.00
2022-08-02T22:02:18.139Z,98839.69
2022-08-02T22:04:47.413Z,98844.69
2022-08-02T22:07:23.673Z,98844.69
2022-08-02T22:09:53.702Z,98850.31
2022-08-02T22:12:26.309Z,98848.47
2022-08-02T22:14:55.742Z,98855.97
2022-08-02T22:17:53.278Z,98852.78
2022-08-02T22:20:21.529Z,98854.16
2022-08-02T22:22:53.372Z,98849.31
2022-08-02T22:25:36.156Z,98859.31
2022-08-02T22:28:38.991Z,98851.59
2022-08-02T22:31:04.604Z,98859.31
2022-08-02T22:34:01.026Z,98860.72
2022-08-02T22:36:43.387Z,98863.38
2022-08-02T22:39:18.863Z,98860.69
2022-08-02T22:42:06.351Z,98861.56
2022-08-02T22:44:35.830Z,98874.25
2022-08-02T22:47:14.904Z,98874.59
2022-08-02T22:49:54.346Z,98871.59
2022-08-02T22:52:23.836Z,98873.06
2022-08-02T22:54:51.734Z,98868.03
2022-08-02T22:57:30.191Z,98867.97
2022-08-02T22:58:50.426Z,98760.81
2022-08-02T22:58:54.018Z,98821.63
2022-08-02T23:00:09.417Z,98873.50
2022-08-02T23:02:37.986Z,98874.41
2022-08-02T23:05:06.070Z,98878.22
2022-08-02T23:07:36.349Z,98877.31
2022-08-02T23:10:07.936Z,98877.88
2022-08-02T23:12:35.616Z,98874.81
2022-08-02T23:15:06.242Z,98868.50
2022-08-02T23:17:52.927Z,98871.66
2022-08-02T23:20:21.145Z,98877.84
2022-08-02T23:22:48.374Z,98868.59
2022-08-02T23:25:15.631Z,98880.31
2022-08-02T23:27:50.466Z,98877.53
2022-08-02T23:30:19.925Z,98873.47
2022-08-02T23:32:47.671Z,98868.66
2022-08-02T23:35:16.716Z,98877.28
2022-08-02T23:37:59.739Z,98873.41
2022-08-02T23:40:40.611Z,98874.69
2022-08-02T23:43:14.466Z,98870.53
2022-08-02T23:45:46.586Z,98875.34
2022-08-02T23:48:16.304Z,98880.41
2022-08-02T23:50:46.381Z,98874.25
2022-08-02T23:53:13.601Z,98873.41
2022-08-02T23:55:40.834Z,98883.13
2022-08-02T23:58:08.011Z,98878.41
